sensor_id;sensor_type;location;lat;lon;timestamp;temperature;humidity
29803;DHT22;16702;50.898;4.662;2023-06-22T00:00:08;25.30;99.90
29803;DHT22;16702;50.898;4.662;2023-06-22T00:02:39;25.20;99.90
29803;DHT22;16702;50.898;4.662;2023-06-22T00:05:13;25.20;99.90
29803;DHT22;16702;50.898;4.662;2023-06-22T00:07:43;25.20;99.90
29803;DHT22;16702;50.898;4.662;2023-06-22T00:10:14;25.20;99.90
29803;DHT22;16702;50.898;4.662;2023-06-22T00:12:44;25.20;99.90
29803;DHT22;16702;50.898;4.662;2023-06-22T00:15:14;25.10;99.90
29803;DHT22;16702;50.898;4.662;2023-06-22T00:17:45;25.10;99.90
29803;DHT22;16702;50.898;4.662;2023-06-22T00:20:18;25.00;99.90
29803;DHT22;16702;50.898;4.662;2023-06-22T00:22:50;25.00;99.90
29803;DHT22;16702;50.898;4.662;2023-06-22T00:25:20;24.90;99.90
29803;DHT22;16702;50.898;4.662;2023-06-22T00:27:53;24.90;99.90
29803;DHT22;16702;50.898;4.662;2023-06-22T00:30:24;24.80;99.90
29803;DHT22;16702;50.898;4.662;2023-06-22T00:32:57;24.80;99.90
29803;DHT22;16702;50.898;4.662;2023-06-22T00:35:30;24.70;99.90
29803;DHT22;16702;50.898;4.662;2023-06-22T00:38:01;24.70;99.90
29803;DHT22;16702;50.898;4.662;2023-06-22T00:40:32;24.70;99.90
29803;DHT22;16702;50.898;4.662;2023-06-22T00:43:03;24.60;99.90
29803;DHT22;16702;50.898;4.662;2023-06-22T00:45:35;24.60;99.90
29803;DHT22;16702;50.898;4.662;2023-06-22T00:48:06;24.60;99.90
29803;DHT22;16702;50.898;4.662;2023-06-22T00:50:40;24.60;99.90
29803;DHT22;16702;50.898;4.662;2023-06-22T00:53:10;24.60;99.90
29803;DHT22;16702;50.898;4.662;2023-06-22T00:55:42;24.60;99.90
29803;DHT22;16702;50.898;4.662;2023-06-22T00:58:14;24.60;99.90
29803;DHT22;16702;50.898;4.662;2023-06-22T01:00:44;24.60;99.90
29803;DHT22;16702;50.898;4.662;2023-06-22T01:03:15;24.60;99.90
29803;DHT22;16702;50.898;4.662;2023-06-22T01:05:50;24.60;99.90
29803;DHT22;16702;50.898;4.662;2023-06-22T01:08:29;24.60;99.90
29803;DHT22;16702;50.898;4.662;2023-06-22T01:11:05;24.60;99.90
29803;DHT22;16702;50.898;4.662;2023-06-22T01:13:41;24.50;99.90
29803;DHT22;16702;50.898;4.662;2023-06-22T01:16:18;24.50;99.90
29803;DHT22;16702;50.898;4.662;2023-06-22T01:18:53;24.50;99.90
29803;DHT22;16702;50.898;4.662;2023-06-22T01:21:31;24.50;99.90
29803;DHT22;16702;50.898;4.662;2023-06-22T01:24:14;24.50;99.90
29803;DHT22;16702;50.898;4.662;2023-06-22T01:26:54;24.50;99.90
29803;DHT22;16702;50.898;4.662;2023-06-22T01:29:30;24.40;99.90
29803;DHT22;16702;50.898;4.662;2023-06-22T01:32:03;24.30;99.90
29803;DHT22;16702;50.898;4.662;2023-06-22T01:34:36;24.30;99.90
29803;DHT22;16702;50.898;4.662;2023-06-22T01:37:08;24.20;99.90
29803;DHT22;16702;50.898;4.662;2023-06-22T01:39:39;24.20;99.90
29803;DHT22;16702;50.898;4.662;2023-06-22T01:42:10;24.20;99.90
29803;DHT22;16702;50.898;4.662;2023-06-22T01:44:43;24.10;99.90
29803;DHT22;16702;50.898;4.662;2023-06-22T01:47:14;24.10;99.90
29803;DHT22;16702;50.898;4.662;2023-06-22T01:49:45;24.10;99.90
29803;DHT22;16702;50.898;4.662;2023-06-22T01:52:16;24.10;99.90
29803;DHT22;16702;50.898;4.662;2023-06-22T01:54:49;24.00;99.90
29803;DHT22;16702;50.898;4.662;2023-06-22T01:57:19;24.00;99.90
29803;DHT22;16702;50.898;4.662;2023-06-22T01:59:59;24.00;99.90
29803;DHT22;16702;50.898;4.662;2023-06-22T02:02:44;23.80;99.90
29803;DHT22;16702;50.898;4.662;2023-06-22T02:05:17;23.90;99.90
29803;DHT22;16702;50.898;4.662;2023-06-22T02:07:54;23.80;99.90
29803;DHT22;16702;50.898;4.662;2023-06-22T02:10:27;23.80;99.90
29803;DHT22;16702;50.898;4.662;2023-06-22T02:12:59;23.80;99.90
29803;DHT22;16702;50.898;4.662;2023-06-22T02:15:33;23.70;99.90
29803;DHT22;16702;50.898;4.662;2023-06-22T02:18:04;23.70;99.90
29803;DHT22;16702;50.898;4.662;2023-06-22T02:20:37;23.70;99.90
29803;DHT22;16702;50.898;4.662;2023-06-22T02:23:08;23.60;99.90
29803;DHT22;16702;50.898;4.662;2023-06-22T02:25:38;23.60;99.90
29803;DHT22;16702;50.898;4.662;2023-06-22T02:28:11;23.60;99.90
29803;DHT22;16702;50.898;4.662;2023-06-22T02:30:44;23.60;99.90
29803;DHT22;16702;50.898;4.662;2023-06-22T02:33:15;23.50;99.90
29803;DHT22;16702;50.898;4.662;2023-06-22T02:35:46;23.50;99.90
29803;DHT22;16702;50.898;4.662;2023-06-22T02:38:17;23.50;99.90
29803;DHT22;16702;50.898;4.662;2023-06-22T02:40:47;23.40;99.90
29803;DHT22;16702;50.898;4.662;2023-06-22T02:43:18;23.50;99.90
29803;DHT22;16702;50.898;4.662;2023-06-22T02:45:51;23.40;99.90
29803;DHT22;16702;50.898;4.662;2023-06-22T02:48:21;23.40;99.90
29803;DHT22;16702;50.898;4.662;2023-06-22T02:50:52;23.30;99.90
29803;DHT22;16702;50.898;4.662;2023-06-22T02:53:23;23.30;99.90
29803;DHT22;16702;50.898;4.662;2023-06-22T02:55:53;23.30;99.90
29803;DHT22;16702;50.898;4.662;2023-06-22T02:58:24;23.30;99.90
29803;DHT22;16702;50.898;4.662;2023-06-22T03:00:57;23.20;99.90
29803;DHT22;16702;50.898;4.662;2023-06-22T03:03:33;23.20;99.90
29803;DHT22;16702;50.898;4.662;2023-06-22T03:06:04;23.20;99.90
29803;DHT22;16702;50.898;4.662;2023-06-22T03:08:34;23.20;99.90
29803;DHT22;16702;50.898;4.662;2023-06-22T03:11:05;23.10;99.90
29803;DHT22;16702;50.898;4.662;2023-06-22T03:13:36;23.10;99.90
29803;DHT22;16702;50.898;4.662;2023-06-22T03:16:09;23.10;99.90
29803;DHT22;16702;50.898;4.662;2023-06-22T03:18:40;23.10;99.90
29803;DHT22;16702;50.898;4.662;2023-06-22T03:21:12;23.00;99.90
29803;DHT22;16702;50.898;4.662;2023-06-22T03:23:44;23.00;99.90
29803;DHT22;16702;50.898;4.662;2023-06-22T03:26:16;23.00;99.90
29803;DHT22;16702;50.898;4.662;2023-06-22T03:28:47;23.00;99.90
29803;DHT22;16702;50.898;4.662;2023-06-22T03:31:20;22.90;99.90
29803;DHT22;16702;50.898;4.662;2023-06-22T03:33:52;22.90;99.90
29803;DHT22;16702;50.898;4.662;2023-06-22T03:36:23;22.90;99.90
29803;DHT22;16702;50.898;4.662;2023-06-22T03:38:54;22.90;99.90
29803;DHT22;16702;50.898;4.662;2023-06-22T03:41:24;22.90;99.90
29803;DHT22;16702;50.898;4.662;2023-06-22T03:43:56;22.90;99.90
29803;DHT22;16702;50.898;4.662;2023-06-22T03:46:29;22.90;99.90
29803;DHT22;16702;50.898;4.662;2023-06-22T03:49:00;22.90;99.90
29803;DHT22;16702;50.898;4.662;2023-06-22T03:51:32;22.90;99.90
29803;DHT22;16702;50.898;4.662;2023-06-22T03:54:03;22.90;99.90
29803;DHT22;16702;50.898;4.662;2023-06-22T03:56:33;22.90;99.90
29803;DHT22;16702;50.898;4.662;2023-06-22T03:59:04;22.90;99.90
29803;DHT22;16702;50.898;4.662;2023-06-22T04:01:37;22.90;99.90
29803;DHT22;16702;50.898;4.662;2023-06-22T04:04:07;22.90;99.90
29803;DHT22;16702;50.898;4.662;2023-06-22T04:06:40;22.70;99.90
29803;DHT22;16702;50.898;4.662;2023-06-22T04:09:11;22.70;99.90
29803;DHT22;16702;50.898;4.662;2023-06-22T04:11:41;22.80;99.90
29803;DHT22;16702;50.898;4.662;2023-06-22T04:14:12;22.80;99.90
29803;DHT22;16702;50.898;4.662;2023-06-22T04:16:45;22.80;99.90
29803;DHT22;16702;50.898;4.662;2023-06-22T04:19:15;22.80;99.90
29803;DHT22;16702;50.898;4.662;2023-06-22T04:21:46;22.80;99.90
29803;DHT22;16702;50.898;4.662;2023-06-22T04:24:16;22.80;99.90
29803;DHT22;16702;50.898;4.662;2023-06-22T04:26:47;22.80;99.90
29803;DHT22;16702;50.898;4.662;2023-06-22T04:29:22;22.70;99.90
29803;DHT22;16702;50.898;4.662;2023-06-22T04:32:00;22.70;99.90
29803;DHT22;16702;50.898;4.662;2023-06-22T04:34:32;22.70;99.90
29803;DHT22;16702;50.898;4.662;2023-06-22T04:37:03;22.70;99.90
29803;DHT22;16702;50.898;4.662;2023-06-22T04:39:34;22.70;99.90
29803;DHT22;16702;50.898;4.662;2023-06-22T04:42:05;22.70;99.90
29803;DHT22;16702;50.898;4.662;2023-06-22T04:44:35;22.70;99.90
29803;DHT22;16702;50.898;4.662;2023-06-22T04:47:11;22.80;99.90
29803;DHT22;16702;50.898;4.662;2023-06-22T04:49:42;22.70;99.90
29803;DHT22;16702;50.898;4.662;2023-06-22T04:52:13;22.70;99.90
29803;DHT22;16702;50.898;4.662;2023-06-22T04:54:47;22.70;99.90
29803;DHT22;16702;50.898;4.662;2023-06-22T04:57:22;22.70;99.90
29803;DHT22;16702;50.898;4.662;2023-06-22T05:00:00;22.70;99.90
29803;DHT22;16702;50.898;4.662;2023-06-22T05:02:41;22.60;99.90
29803;DHT22;16702;50.898;4.662;2023-06-22T05:05:13;22.60;99.90
29803;DHT22;16702;50.898;4.662;2023-06-22T05:07:44;22.60;99.90
29803;DHT22;16702;50.898;4.662;2023-06-22T05:10:15;22.70;99.90
29803;DHT22;16702;50.898;4.662;2023-06-22T05:12:46;22.60;99.90
29803;DHT22;16702;50.898;4.662;2023-06-22T05:15:17;22.60;99.90
29803;DHT22;16702;50.898;4.662;2023-06-22T05:17:52;22.60;99.90
29803;DHT22;16702;50.898;4.662;2023-06-22T05:20:22;22.70;99.90
29803;DHT22;16702;50.898;4.662;2023-06-22T05:22:53;22.60;99.90
29803;DHT22;16702;50.898;4.662;2023-06-22T05:25:24;22.60;99.90
29803;DHT22;16702;50.898;4.662;2023-06-22T05:27:57;22.60;99.90
29803;DHT22;16702;50.898;4.662;2023-06-22T05:30:27;22.60;99.90
29803;DHT22;16702;50.898;4.662;2023-06-22T05:33:01;22.70;99.90
29803;DHT22;16702;50.898;4.662;2023-06-22T05:35:31;22.60;99.90
29803;DHT22;16702;50.898;4.662;2023-06-22T05:38:02;22.70;99.90
29803;DHT22;16702;50.898;4.662;2023-06-22T05:40:32;22.60;99.90
29803;DHT22;16702;50.898;4.662;2023-06-22T05:43:02;22.60;99.90
29803;DHT22;16702;50.898;4.662;2023-06-22T05:45:33;22.50;99.90
29803;DHT22;16702;50.898;4.662;2023-06-22T05:48:06;22.50;99.90
29803;DHT22;16702;50.898;4.662;2023-06-22T05:50:37;22.50;99.90
29803;DHT22;16702;50.898;4.662;2023-06-22T05:53:07;22.50;99.90
29803;DHT22;16702;50.898;4.662;2023-06-22T05:55:38;22.50;99.90
29803;DHT22;16702;50.898;4.662;2023-06-22T05:58:09;22.50;99.90
29803;DHT22;16702;50.898;4.662;2023-06-22T06:00:41;22.40;99.90
29803;DHT22;16702;50.898;4.662;2023-06-22T06:03:14;22.50;99.90
29803;DHT22;16702;50.898;4.662;2023-06-22T06:05:44;22.50;99.90
29803;DHT22;16702;50.898;4.662;2023-06-22T06:08:15;22.50;99.90
29803;DHT22;16702;50.898;4.662;2023-06-22T06:10:45;22.40;99.90
29803;DHT22;16702;50.898;4.662;2023-06-22T06:13:16;22.40;99.90
29803;DHT22;16702;50.898;4.662;2023-06-22T06:15:46;22.30;99.90
29803;DHT22;16702;50.898;4.662;2023-06-22T06:18:21;22.30;99.90
29803;DHT22;16702;50.898;4.662;2023-06-22T06:20:51;22.40;99.90
29803;DHT22;16702;50.898;4.662;2023-06-22T06:23:22;22.40;99.90
29803;DHT22;16702;50.898;4.662;2023-06-22T06:25:52;22.40;99.90
29803;DHT22;16702;50.898;4.662;2023-06-22T06:28:24;22.40;99.90
29803;DHT22;16702;50.898;4.662;2023-06-22T06:30:55;22.40;99.90
29803;DHT22;16702;50.898;4.662;2023-06-22T06:33:28;22.50;99.90
29803;DHT22;16702;50.898;4.662;2023-06-22T06:35:58;22.60;99.90
29803;DHT22;16702;50.898;4.662;2023-06-22T06:38:31;22.60;99.90
29803;DHT22;16702;50.898;4.662;2023-06-22T06:41:01;22.50;99.90
29803;DHT22;16702;50.898;4.662;2023-06-22T06:43:32;22.60;99.90
29803;DHT22;16702;50.898;4.662;2023-06-22T06:46:02;22.70;99.90
29803;DHT22;16702;50.898;4.662;2023-06-22T06:48:35;22.60;99.90
29803;DHT22;16702;50.898;4.662;2023-06-22T06:51:07;22.70;99.90
29803;DHT22;16702;50.898;4.662;2023-06-22T06:53:38;22.60;99.90
29803;DHT22;16702;50.898;4.662;2023-06-22T06:56:09;22.60;99.90
29803;DHT22;16702;50.898;4.662;2023-06-22T06:58:41;22.70;99.90
29803;DHT22;16702;50.898;4.662;2023-06-22T07:01:12;22.80;99.90
29803;DHT22;16702;50.898;4.662;2023-06-22T07:03:45;22.80;99.90
29803;DHT22;16702;50.898;4.662;2023-06-22T07:06:16;22.90;99.90
29803;DHT22;16702;50.898;4.662;2023-06-22T07:08:46;22.80;99.90
29803;DHT22;16702;50.898;4.662;2023-06-22T07:11:17;22.80;99.90
29803;DHT22;16702;50.898;4.662;2023-06-22T07:13:47;22.80;99.90
29803;DHT22;16702;50.898;4.662;2023-06-22T07:16:17;22.80;99.90
29803;DHT22;16702;50.898;4.662;2023-06-22T07:18:51;22.80;99.90
29803;DHT22;16702;50.898;4.662;2023-06-22T07:21:21;22.80;99.90
29803;DHT22;16702;50.898;4.662;2023-06-22T07:23:51;22.90;99.90
29803;DHT22;16702;50.898;4.662;2023-06-22T07:26:22;22.90;99.90
29803;DHT22;16702;50.898;4.662;2023-06-22T07:28:55;22.80;99.90
29803;DHT22;16702;50.898;4.662;2023-06-22T07:31:25;22.90;99.90
29803;DHT22;16702;50.898;4.662;2023-06-22T07:33:59;22.90;99.90
29803;DHT22;16702;50.898;4.662;2023-06-22T07:36:30;22.90;99.90
29803;DHT22;16702;50.898;4.662;2023-06-22T07:39:02;22.90;99.90
29803;DHT22;16702;50.898;4.662;2023-06-22T07:41:33;23.00;99.90
29803;DHT22;16702;50.898;4.662;2023-06-22T07:44:03;23.00;99.90
29803;DHT22;16702;50.898;4.662;2023-06-22T07:46:34;22.90;99.90
29803;DHT22;16702;50.898;4.662;2023-06-22T07:49:07;22.80;99.90
29803;DHT22;16702;50.898;4.662;2023-06-22T07:51:38;22.90;99.90
29803;DHT22;16702;50.898;4.662;2023-06-22T07:54:09;22.90;99.90
29803;DHT22;16702;50.898;4.662;2023-06-22T07:56:39;23.00;99.90
29803;DHT22;16702;50.898;4.662;2023-06-22T07:59:10;22.90;99.90
29803;DHT22;16702;50.898;4.662;2023-06-22T08:01:40;22.90;99.90
29803;DHT22;16702;50.898;4.662;2023-06-22T08:04:14;22.90;99.90
29803;DHT22;16702;50.898;4.662;2023-06-22T08:06:44;22.90;99.90
29803;DHT22;16702;50.898;4.662;2023-06-22T08:09:14;22.90;99.90
29803;DHT22;16702;50.898;4.662;2023-06-22T08:11:45;22.90;99.90
29803;DHT22;16702;50.898;4.662;2023-06-22T08:14:16;22.90;99.90
29803;DHT22;16702;50.898;4.662;2023-06-22T08:16:47;22.90;99.90
29803;DHT22;16702;50.898;4.662;2023-06-22T08:19:20;22.90;99.90
29803;DHT22;16702;50.898;4.662;2023-06-22T08:21:51;22.80;99.90
29803;DHT22;16702;50.898;4.662;2023-06-22T08:24:22;22.90;99.90
29803;DHT22;16702;50.898;4.662;2023-06-22T08:26:52;22.90;99.90
29803;DHT22;16702;50.898;4.662;2023-06-22T08:29:23;22.90;99.90
29803;DHT22;16702;50.898;4.662;2023-06-22T08:31:56;22.90;99.90
29803;DHT22;16702;50.898;4.662;2023-06-22T08:34:29;22.90;99.90
29803;DHT22;16702;50.898;4.662;2023-06-22T08:37:02;22.90;99.90
29803;DHT22;16702;50.898;4.662;2023-06-22T08:39:33;22.90;99.90
29803;DHT22;16702;50.898;4.662;2023-06-22T08:42:05;22.90;99.90
29803;DHT22;16702;50.898;4.662;2023-06-22T08:44:36;22.90;99.90
29803;DHT22;16702;50.898;4.662;2023-06-22T08:47:07;22.90;99.90
29803;DHT22;16702;50.898;4.662;2023-06-22T08:49:40;22.90;99.90
29803;DHT22;16702;50.898;4.662;2023-06-22T08:52:11;22.90;99.90
29803;DHT22;16702;50.898;4.662;2023-06-22T08:54:42;22.90;99.90
29803;DHT22;16702;50.898;4.662;2023-06-22T08:57:12;22.90;99.90
29803;DHT22;16702;50.898;4.662;2023-06-22T08:59:43;22.90;99.90
29803;DHT22;16702;50.898;4.662;2023-06-22T09:02:16;22.90;99.90
29803;DHT22;16702;50.898;4.662;2023-06-22T09:04:49;22.90;99.90
29803;DHT22;16702;50.898;4.662;2023-06-22T09:07:23;22.90;99.90
29803;DHT22;16702;50.898;4.662;2023-06-22T09:09:55;22.90;99.90
29803;DHT22;16702;50.898;4.662;2023-06-22T09:12:29;22.90;99.90
29803;DHT22;16702;50.898;4.662;2023-06-22T09:15:01;22.90;99.90
29803;DHT22;16702;50.898;4.662;2023-06-22T09:17:33;22.90;99.90
29803;DHT22;16702;50.898;4.662;2023-06-22T09:20:09;22.90;99.90
29803;DHT22;16702;50.898;4.662;2023-06-22T09:22:41;22.90;99.90
29803;DHT22;16702;50.898;4.662;2023-06-22T09:25:12;22.90;99.90
29803;DHT22;16702;50.898;4.662;2023-06-22T09:27:43;22.90;99.90
29803;DHT22;16702;50.898;4.662;2023-06-22T09:30:14;22.90;99.90
29803;DHT22;16702;50.898;4.662;2023-06-22T09:32:45;22.80;99.90
29803;DHT22;16702;50.898;4.662;2023-06-22T09:35:19;22.80;99.90
29803;DHT22;16702;50.898;4.662;2023-06-22T09:37:51;22.80;99.90
29803;DHT22;16702;50.898;4.662;2023-06-22T09:40:22;22.90;99.90
29803;DHT22;16702;50.898;4.662;2023-06-22T09:42:54;22.90;99.90
29803;DHT22;16702;50.898;4.662;2023-06-22T09:45:25;22.90;99.90
29803;DHT22;16702;50.898;4.662;2023-06-22T09:47:56;22.90;99.90
29803;DHT22;16702;50.898;4.662;2023-06-22T09:50:30;22.80;99.90
29803;DHT22;16702;50.898;4.662;2023-06-22T09:53:01;22.70;99.90
29803;DHT22;16702;50.898;4.662;2023-06-22T09:55:32;22.80;99.90
29803;DHT22;16702;50.898;4.662;2023-06-22T09:58:03;22.80;99.90
29803;DHT22;16702;50.898;4.662;2023-06-22T10:00:34;22.70;99.90
29803;DHT22;16702;50.898;4.662;2023-06-22T10:03:05;22.70;99.90
29803;DHT22;16702;50.898;4.662;2023-06-22T10:05:39;22.60;99.90
29803;DHT22;16702;50.898;4.662;2023-06-22T10:08:13;22.50;99.90
29803;DHT22;16702;50.898;4.662;2023-06-22T10:10:44;22.40;99.90
29803;DHT22;16702;50.898;4.662;2023-06-22T10:13:14;22.50;99.90
29803;DHT22;16702;50.898;4.662;2023-06-22T10:15:46;22.50;99.90
29803;DHT22;16702;50.898;4.662;2023-06-22T10:18:20;22.40;99.90
29803;DHT22;16702;50.898;4.662;2023-06-22T10:20:53;22.30;99.90
29803;DHT22;16702;50.898;4.662;2023-06-22T10:23:24;22.30;99.90
29803;DHT22;16702;50.898;4.662;2023-06-22T10:25:55;22.20;99.90
29803;DHT22;16702;50.898;4.662;2023-06-22T10:28:26;22.20;99.90
29803;DHT22;16702;50.898;4.662;2023-06-22T10:30:59;22.10;99.90
29803;DHT22;16702;50.898;4.662;2023-06-22T10:33:30;22.00;99.90
29803;DHT22;16702;50.898;4.662;2023-06-22T10:36:03;22.00;99.90
29803;DHT22;16702;50.898;4.662;2023-06-22T10:38:34;22.00;99.90
29803;DHT22;16702;50.898;4.662;2023-06-22T10:41:04;22.00;99.90
29803;DHT22;16702;50.898;4.662;2023-06-22T10:43:35;21.90;99.90
29803;DHT22;16702;50.898;4.662;2023-06-22T10:46:06;21.80;99.90
29803;DHT22;16702;50.898;4.662;2023-06-22T10:48:36;21.80;99.90
29803;DHT22;16702;50.898;4.662;2023-06-22T10:51:09;21.70;99.90
29803;DHT22;16702;50.898;4.662;2023-06-22T10:53:40;21.60;99.90
29803;DHT22;16702;50.898;4.662;2023-06-22T10:56:11;21.60;99.90
29803;DHT22;16702;50.898;4.662;2023-06-22T10:58:41;21.60;99.90
29803;DHT22;16702;50.898;4.662;2023-06-22T11:01:12;21.60;99.90
29803;DHT22;16702;50.898;4.662;2023-06-22T11:04:00;21.60;99.90
29803;DHT22;16702;50.898;4.662;2023-06-22T11:06:34;21.40;99.90
29803;DHT22;16702;50.898;4.662;2023-06-22T11:09:05;21.40;99.90
29803;DHT22;16702;50.898;4.662;2023-06-22T11:11:52;21.40;99.90
29803;DHT22;16702;50.898;4.662;2023-06-22T11:14:23;21.40;99.90
29803;DHT22;16702;50.898;4.662;2023-06-22T11:16:54;21.50;99.90
29803;DHT22;16702;50.898;4.662;2023-06-22T11:19:25;21.40;99.90
29803;DHT22;16702;50.898;4.662;2023-06-22T11:21:59;21.50;99.90
29803;DHT22;16702;50.898;4.662;2023-06-22T11:24:30;21.30;99.90
29803;DHT22;16702;50.898;4.662;2023-06-22T11:27:01;21.50;99.90
29803;DHT22;16702;50.898;4.662;2023-06-22T11:29:32;21.60;99.90
29803;DHT22;16702;50.898;4.662;2023-06-22T11:32:06;21.50;99.90
29803;DHT22;16702;50.898;4.662;2023-06-22T11:34:39;21.60;99.90
29803;DHT22;16702;50.898;4.662;2023-06-22T11:37:13;21.60;99.90
29803;DHT22;16702;50.898;4.662;2023-06-22T11:39:44;21.60;99.90
29803;DHT22;16702;50.898;4.662;2023-06-22T11:42:26;21.70;99.90
29803;DHT22;16702;50.898;4.662;2023-06-22T11:44:56;21.60;99.90
29803;DHT22;16702;50.898;4.662;2023-06-22T11:47:27;21.60;99.90
29803;DHT22;16702;50.898;4.662;2023-06-22T11:49:58;21.50;99.90
29803;DHT22;16702;50.898;4.662;2023-06-22T11:52:31;21.60;99.90
29803;DHT22;16702;50.898;4.662;2023-06-22T11:55:04;21.50;99.90
29803;DHT22;16702;50.898;4.662;2023-06-22T11:57:36;21.60;99.90
29803;DHT22;16702;50.898;4.662;2023-06-22T12:00:08;21.60;99.90
29803;DHT22;16702;50.898;4.662;2023-06-22T12:02:45;21.60;99.90
29803;DHT22;16702;50.898;4.662;2023-06-22T12:05:16;21.50;99.90
29803;DHT22;16702;50.898;4.662;2023-06-22T12:07:50;21.50;99.90
29803;DHT22;16702;50.898;4.662;2023-06-22T12:10:20;21.50;99.90
29803;DHT22;16702;50.898;4.662;2023-06-22T12:12:52;21.40;99.90
29803;DHT22;16702;50.898;4.662;2023-06-22T12:15:22;21.40;99.90
29803;DHT22;16702;50.898;4.662;2023-06-22T12:17:53;21.40;99.90
29803;DHT22;16702;50.898;4.662;2023-06-22T12:20:24;21.30;99.90
29803;DHT22;16702;50.898;4.662;2023-06-22T12:22:58;21.40;99.90
29803;DHT22;16702;50.898;4.662;2023-06-22T12:25:28;21.50;99.90
29803;DHT22;16702;50.898;4.662;2023-06-22T12:27:59;21.50;99.90
29803;DHT22;16702;50.898;4.662;2023-06-22T12:30:30;21.50;99.90
29803;DHT22;16702;50.898;4.662;2023-06-22T12:33:00;21.40;99.90
29803;DHT22;16702;50.898;4.662;2023-06-22T12:35:31;21.40;99.90
29803;DHT22;16702;50.898;4.662;2023-06-22T12:38:04;21.30;99.90
29803;DHT22;16702;50.898;4.662;2023-06-22T12:40:36;21.30;99.90
29803;DHT22;16702;50.898;4.662;2023-06-22T12:43:07;21.30;99.90
29803;DHT22;16702;50.898;4.662;2023-06-22T12:45:38;21.20;99.90
29803;DHT22;16702;50.898;4.662;2023-06-22T12:48:10;21.20;99.90
29803;DHT22;16702;50.898;4.662;2023-06-22T12:50:41;21.20;99.90
29803;DHT22;16702;50.898;4.662;2023-06-22T12:53:14;21.00;99.90
29803;DHT22;16702;50.898;4.662;2023-06-22T12:55:45;21.20;99.90
29803;DHT22;16702;50.898;4.662;2023-06-22T12:58:16;21.00;99.90
29803;DHT22;16702;50.898;4.662;2023-06-22T13:00:48;21.00;99.90
29803;DHT22;16702;50.898;4.662;2023-06-22T13:03:18;21.10;99.90
29803;DHT22;16702;50.898;4.662;2023-06-22T13:05:49;21.00;99.90
29803;DHT22;16702;50.898;4.662;2023-06-22T13:08:22;21.10;99.90
29803;DHT22;16702;50.898;4.662;2023-06-22T13:11:13;21.00;99.90
29803;DHT22;16702;50.898;4.662;2023-06-22T13:13:45;20.90;99.90
29803;DHT22;16702;50.898;4.662;2023-06-22T13:16:16;20.90;99.90
29803;DHT22;16702;50.898;4.662;2023-06-22T13:18:47;21.00;99.90
29803;DHT22;16702;50.898;4.662;2023-06-22T13:21:18;21.00;99.90
29803;DHT22;16702;50.898;4.662;2023-06-22T13:23:51;21.00;99.90
29803;DHT22;16702;50.898;4.662;2023-06-22T13:26:21;21.00;99.90
29803;DHT22;16702;50.898;4.662;2023-06-22T13:28:52;20.90;99.90
29803;DHT22;16702;50.898;4.662;2023-06-22T13:31:23;20.90;99.90
29803;DHT22;16702;50.898;4.662;2023-06-22T13:33:53;20.90;99.90
29803;DHT22;16702;50.898;4.662;2023-06-22T13:36:24;20.80;99.90
29803;DHT22;16702;50.898;4.662;2023-06-22T13:39:00;20.80;99.90
29803;DHT22;16702;50.898;4.662;2023-06-22T13:41:31;20.80;99.90
29803;DHT22;16702;50.898;4.662;2023-06-22T13:44:02;20.80;99.90
29803;DHT22;16702;50.898;4.662;2023-06-22T13:46:32;20.80;99.90
29803;DHT22;16702;50.898;4.662;2023-06-22T13:49:03;20.80;99.90
29803;DHT22;16702;50.898;4.662;2023-06-22T13:51:33;20.70;99.90
29803;DHT22;16702;50.898;4.662;2023-06-22T13:54:06;20.80;99.90
29803;DHT22;16702;50.898;4.662;2023-06-22T13:56:55;20.80;99.90
29803;DHT22;16702;50.898;4.662;2023-06-22T13:59:26;20.80;99.90
29803;DHT22;16702;50.898;4.662;2023-06-22T14:01:57;20.80;99.90
29803;DHT22;16702;50.898;4.662;2023-06-22T14:04:28;20.70;99.90
29803;DHT22;16702;50.898;4.662;2023-06-22T14:06:59;20.80;99.90
29803;DHT22;16702;50.898;4.662;2023-06-22T14:09:32;20.70;99.90
29803;DHT22;16702;50.898;4.662;2023-06-22T14:12:06;20.80;99.90
29803;DHT22;16702;50.898;4.662;2023-06-22T14:14:37;20.80;99.90
29803;DHT22;16702;50.898;4.662;2023-06-22T14:17:08;20.90;99.90
29803;DHT22;16702;50.898;4.662;2023-06-22T14:19:38;20.80;99.90
29803;DHT22;16702;50.898;4.662;2023-06-22T14:22:09;20.80;99.90
29803;DHT22;16702;50.898;4.662;2023-06-22T14:24:42;20.70;99.90
29803;DHT22;16702;50.898;4.662;2023-06-22T14:27:12;20.70;99.90
29803;DHT22;16702;50.898;4.662;2023-06-22T14:29:43;20.60;99.90
29803;DHT22;16702;50.898;4.662;2023-06-22T14:32:14;20.70;99.90
29803;DHT22;16702;50.898;4.662;2023-06-22T14:34:44;20.60;99.90
29803;DHT22;16702;50.898;4.662;2023-06-22T14:37:17;20.60;99.90
29803;DHT22;16702;50.898;4.662;2023-06-22T14:39:50;20.60;99.90
29803;DHT22;16702;50.898;4.662;2023-06-22T14:42:21;20.60;99.90
29803;DHT22;16702;50.898;4.662;2023-06-22T14:44:54;20.60;99.90
29803;DHT22;16702;50.898;4.662;2023-06-22T14:47:24;20.70;99.90
29803;DHT22;16702;50.898;4.662;2023-06-22T14:49:56;20.70;99.90
29803;DHT22;16702;50.898;4.662;2023-06-22T14:52:27;20.60;99.90
29803;DHT22;16702;50.898;4.662;2023-06-22T14:55:00;20.60;99.90
29803;DHT22;16702;50.898;4.662;2023-06-22T14:57:31;20.60;99.90
29803;DHT22;16702;50.898;4.662;2023-06-22T15:00:01;20.60;99.90
29803;DHT22;16702;50.898;4.662;2023-06-22T15:02:33;20.60;99.90
29803;DHT22;16702;50.898;4.662;2023-06-22T15:05:05;20.70;99.90
29803;DHT22;16702;50.898;4.662;2023-06-22T15:07:35;20.70;99.90
29803;DHT22;16702;50.898;4.662;2023-06-22T15:10:09;20.70;99.90
29803;DHT22;16702;50.898;4.662;2023-06-22T15:12:40;20.70;99.90
29803;DHT22;16702;50.898;4.662;2023-06-22T15:15:11;20.60;99.90
29803;DHT22;16702;50.898;4.662;2023-06-22T15:17:41;20.50;99.90
29803;DHT22;16702;50.898;4.662;2023-06-22T15:20:15;20.60;99.90
29803;DHT22;16702;50.898;4.662;2023-06-22T15:22:45;20.60;99.90
29803;DHT22;16702;50.898;4.662;2023-06-22T15:25:19;20.50;99.90
29803;DHT22;16702;50.898;4.662;2023-06-22T15:27:49;20.60;99.90
29803;DHT22;16702;50.898;4.662;2023-06-22T15:30:20;20.60;99.90
29803;DHT22;16702;50.898;4.662;2023-06-22T15:32:50;20.70;99.90
29803;DHT22;16702;50.898;4.662;2023-06-22T15:35:21;20.70;99.90
29803;DHT22;16702;50.898;4.662;2023-06-22T15:37:52;20.70;99.90
29803;DHT22;16702;50.898;4.662;2023-06-22T15:40:25;20.70;99.90
29803;DHT22;16702;50.898;4.662;2023-06-22T15:42:56;20.60;99.90
29803;DHT22;16702;50.898;4.662;2023-06-22T15:45:26;20.60;99.90
29803;DHT22;16702;50.898;4.662;2023-06-22T15:47:57;20.60;99.90
29803;DHT22;16702;50.898;4.662;2023-06-22T15:50:27;20.70;99.90
29803;DHT22;16702;50.898;4.662;2023-06-22T15:52:58;20.60;99.90
29803;DHT22;16702;50.898;4.662;2023-06-22T15:55:32;20.60;99.90
29803;DHT22;16702;50.898;4.662;2023-06-22T15:58:02;20.70;99.90